sensor_id;sensor_type;location;lat;lon;timestamp;P1;durP1;ratioP1;P2;durP2;ratioP2
43146;SDS011;28752;48.266;7.402;2024-01-10T00:01:00;36.90;;;19.02;;
43146;SDS011;28752;48.266;7.402;2024-01-10T00:03:25;40.37;;;19.50;;
43146;SDS011;28752;48.266;7.402;2024-01-10T00:05:50;38.40;;;19.50;;
43146;SDS011;28752;48.266;7.402;2024-01-10T00:08:16;37.77;;;19.27;;
43146;SDS011;28752;48.266;7.402;2024-01-10T00:10:41;38.17;;;19.63;;
43146;SDS011;28752;48.266;7.402;2024-01-10T00:13:06;35.37;;;18.77;;
43146;SDS011;28752;48.266;7.402;2024-01-10T00:15:32;37.07;;;19.43;;
43146;SDS011;28752;48.266;7.402;2024-01-10T00:17:57;38.13;;;19.30;;
43146;SDS011;28752;48.266;7.402;2024-01-10T00:20:22;38.77;;;19.77;;
43146;SDS011;28752;48.266;7.402;2024-01-10T00:22:48;36.93;;;19.30;;
43146;SDS011;28752;48.266;7.402;2024-01-10T00:25:13;37.17;;;18.87;;
43146;SDS011;28752;48.266;7.402;2024-01-10T00:27:38;37.50;;;18.77;;
43146;SDS011;28752;48.266;7.402;2024-01-10T00:30:04;38.20;;;19.40;;
43146;SDS011;28752;48.266;7.402;2024-01-10T00:32:30;34.88;;;18.98;;
43146;SDS011;28752;48.266;7.402;2024-01-10T00:34:56;35.27;;;19.23;;
43146;SDS011;28752;48.266;7.402;2024-01-10T00:37:21;39.90;;;20.33;;
43146;SDS011;28752;48.266;7.402;2024-01-10T00:39:46;39.67;;;19.53;;
43146;SDS011;28752;48.266;7.402;2024-01-10T00:42:12;39.90;;;20.23;;
43146;SDS011;28752;48.266;7.402;2024-01-10T00:44:37;36.53;;;18.73;;
43146;SDS011;28752;48.266;7.402;2024-01-10T00:47:03;37.30;;;19.80;;
43146;SDS011;28752;48.266;7.402;2024-01-10T00:49:28;36.67;;;19.63;;
43146;SDS011;28752;48.266;7.402;2024-01-10T00:51:54;37.67;;;19.70;;
43146;SDS011;28752;48.266;7.402;2024-01-10T00:54:19;36.17;;;18.83;;
43146;SDS011;28752;48.266;7.402;2024-01-10T00:56:45;36.13;;;18.88;;
43146;SDS011;28752;48.266;7.402;2024-01-10T00:59:10;38.47;;;19.27;;
43146;SDS011;28752;48.266;7.402;2024-01-10T01:01:35;34.67;;;19.23;;
43146;SDS011;28752;48.266;7.402;2024-01-10T01:04:01;37.75;;;19.35;;
43146;SDS011;28752;48.266;7.402;2024-01-10T01:06:27;37.95;;;19.65;;
43146;SDS011;28752;48.266;7.402;2024-01-10T01:08:52;40.63;;;20.07;;
43146;SDS011;28752;48.266;7.402;2024-01-10T01:11:17;36.83;;;19.00;;
43146;SDS011;28752;48.266;7.402;2024-01-10T01:13:43;37.40;;;19.53;;
43146;SDS011;28752;48.266;7.402;2024-01-10T01:16:08;35.73;;;18.80;;
43146;SDS011;28752;48.266;7.402;2024-01-10T01:18:36;34.40;;;18.85;;
43146;SDS011;28752;48.266;7.402;2024-01-10T01:21:01;33.70;;;17.73;;
43146;SDS011;28752;48.266;7.402;2024-01-10T01:23:28;36.47;;;18.98;;
43146;SDS011;28752;48.266;7.402;2024-01-10T01:25:53;37.97;;;19.20;;
43146;SDS011;28752;48.266;7.402;2024-01-10T01:28:18;35.80;;;19.00;;
43146;SDS011;28752;48.266;7.402;2024-01-10T01:30:44;34.20;;;18.83;;
43146;SDS011;28752;48.266;7.402;2024-01-10T01:33:09;35.47;;;18.40;;
43146;SDS011;28752;48.266;7.402;2024-01-10T01:35:34;37.00;;;18.97;;
43146;SDS011;28752;48.266;7.402;2024-01-10T01:38:00;33.63;;;17.73;;
43146;SDS011;28752;48.266;7.402;2024-01-10T01:40:25;37.60;;;19.17;;
43146;SDS011;28752;48.266;7.402;2024-01-10T01:42:50;34.60;;;17.73;;
43146;SDS011;28752;48.266;7.402;2024-01-10T01:45:16;35.97;;;18.83;;
43146;SDS011;28752;48.266;7.402;2024-01-10T01:47:41;41.83;;;19.60;;
43146;SDS011;28752;48.266;7.402;2024-01-10T01:50:07;34.58;;;18.80;;
43146;SDS011;28752;48.266;7.402;2024-01-10T01:54:59;34.90;;;17.95;;
43146;SDS011;28752;48.266;7.402;2024-01-10T01:57:26;33.08;;;18.38;;
43146;SDS011;28752;48.266;7.402;2024-01-10T01:59:51;33.87;;;17.97;;
43146;SDS011;28752;48.266;7.402;2024-01-10T02:02:17;34.97;;;18.90;;
43146;SDS011;28752;48.266;7.402;2024-01-10T02:04:43;34.78;;;18.35;;
43146;SDS011;28752;48.266;7.402;2024-01-10T02:07:10;35.95;;;18.13;;
43146;SDS011;28752;48.266;7.402;2024-01-10T02:09:35;31.75;;;17.73;;
43146;SDS011;28752;48.266;7.402;2024-01-10T02:12:01;38.83;;;19.60;;
43146;SDS011;28752;48.266;7.402;2024-01-10T02:14:28;34.47;;;19.23;;
43146;SDS011;28752;48.266;7.402;2024-01-10T02:16:54;35.80;;;19.70;;
43146;SDS011;28752;48.266;7.402;2024-01-10T02:19:23;36.47;;;18.55;;
43146;SDS011;28752;48.266;7.402;2024-01-10T02:21:49;38.65;;;18.13;;
43146;SDS011;28752;48.266;7.402;2024-01-10T02:24:15;33.45;;;18.33;;
43146;SDS011;28752;48.266;7.402;2024-01-10T02:26:40;34.22;;;19.27;;
43146;SDS011;28752;48.266;7.402;2024-01-10T02:29:06;33.22;;;16.75;;
43146;SDS011;28752;48.266;7.402;2024-01-10T02:31:31;35.50;;;17.77;;
43146;SDS011;28752;48.266;7.402;2024-01-10T02:33:57;29.67;;;16.07;;
43146;SDS011;28752;48.266;7.402;2024-01-10T02:36:22;37.43;;;18.30;;
43146;SDS011;28752;48.266;7.402;2024-01-10T02:38:47;35.97;;;19.67;;
43146;SDS011;28752;48.266;7.402;2024-01-10T02:41:13;33.33;;;18.63;;
43146;SDS011;28752;48.266;7.402;2024-01-10T02:43:38;72.82;;;33.92;;
43146;SDS011;28752;48.266;7.402;2024-01-10T02:46:04;95.90;;;39.45;;
43146;SDS011;28752;48.266;7.402;2024-01-10T02:48:29;55.17;;;26.07;;
43146;SDS011;28752;48.266;7.402;2024-01-10T02:50:54;86.83;;;37.70;;
43146;SDS011;28752;48.266;7.402;2024-01-10T02:53:20;85.38;;;36.72;;
43146;SDS011;28752;48.266;7.402;2024-01-10T02:55:46;69.72;;;32.05;;
43146;SDS011;28752;48.266;7.402;2024-01-10T03:00:38;38.35;;;19.30;;
43146;SDS011;28752;48.266;7.402;2024-01-10T03:03:03;37.60;;;18.93;;
43146;SDS011;28752;48.266;7.402;2024-01-10T03:05:29;41.83;;;21.87;;
43146;SDS011;28752;48.266;7.402;2024-01-10T03:07:54;38.47;;;20.40;;
43146;SDS011;28752;48.266;7.402;2024-01-10T03:10:19;40.30;;;21.67;;
43146;SDS011;28752;48.266;7.402;2024-01-10T03:12:45;47.07;;;24.03;;
43146;SDS011;28752;48.266;7.402;2024-01-10T03:15:10;38.07;;;19.87;;
43146;SDS011;28752;48.266;7.402;2024-01-10T03:17:36;36.00;;;19.98;;
43146;SDS011;28752;48.266;7.402;2024-01-10T03:20:02;37.00;;;18.77;;
43146;SDS011;28752;48.266;7.402;2024-01-10T03:22:28;44.90;;;20.60;;
43146;SDS011;28752;48.266;7.402;2024-01-10T03:24:56;33.58;;;18.90;;
43146;SDS011;28752;48.266;7.402;2024-01-10T03:27:21;35.00;;;18.33;;
43146;SDS011;28752;48.266;7.402;2024-01-10T03:29:46;39.37;;;19.97;;
43146;SDS011;28752;48.266;7.402;2024-01-10T03:32:12;36.93;;;19.60;;
43146;SDS011;28752;48.266;7.402;2024-01-10T03:34:38;36.78;;;19.05;;
43146;SDS011;28752;48.266;7.402;2024-01-10T03:37:03;38.47;;;18.40;;
43146;SDS011;28752;48.266;7.402;2024-01-10T03:39:29;34.80;;;18.47;;
43146;SDS011;28752;48.266;7.402;2024-01-10T03:41:54;36.77;;;18.37;;
43146;SDS011;28752;48.266;7.402;2024-01-10T03:44:19;34.77;;;17.30;;
43146;SDS011;28752;48.266;7.402;2024-01-10T03:46:44;33.60;;;17.10;;
43146;SDS011;28752;48.266;7.402;2024-01-10T03:49:10;32.23;;;16.93;;
43146;SDS011;28752;48.266;7.402;2024-01-10T03:51:35;34.90;;;17.60;;
43146;SDS011;28752;48.266;7.402;2024-01-10T03:54:01;32.77;;;17.17;;
43146;SDS011;28752;48.266;7.402;2024-01-10T03:56:26;37.70;;;19.23;;
43146;SDS011;28752;48.266;7.402;2024-01-10T03:58:51;37.50;;;18.43;;
43146;SDS011;28752;48.266;7.402;2024-01-10T04:01:17;39.60;;;19.63;;
43146;SDS011;28752;48.266;7.402;2024-01-10T04:03:47;38.13;;;19.35;;
43146;SDS011;28752;48.266;7.402;2024-01-10T04:06:12;42.27;;;18.60;;
43146;SDS011;28752;48.266;7.402;2024-01-10T04:08:38;37.77;;;19.30;;
43146;SDS011;28752;48.266;7.402;2024-01-10T04:11:03;37.43;;;19.40;;
43146;SDS011;28752;48.266;7.402;2024-01-10T04:13:29;35.40;;;18.25;;
43146;SDS011;28752;48.266;7.402;2024-01-10T04:15:54;34.00;;;18.57;;
43146;SDS011;28752;48.266;7.402;2024-01-10T04:18:19;39.63;;;19.07;;
43146;SDS011;28752;48.266;7.402;2024-01-10T04:20:45;38.13;;;18.80;;
43146;SDS011;28752;48.266;7.402;2024-01-10T04:23:10;37.03;;;19.03;;
43146;SDS011;28752;48.266;7.402;2024-01-10T04:25:36;41.17;;;20.30;;
43146;SDS011;28752;48.266;7.402;2024-01-10T04:28:01;40.43;;;19.83;;
43146;SDS011;28752;48.266;7.402;2024-01-10T04:30:26;38.80;;;19.35;;
43146;SDS011;28752;48.266;7.402;2024-01-10T04:32:52;38.60;;;19.80;;
43146;SDS011;28752;48.266;7.402;2024-01-10T04:35:17;37.67;;;18.93;;
43146;SDS011;28752;48.266;7.402;2024-01-10T04:37:42;33.77;;;18.10;;
43146;SDS011;28752;48.266;7.402;2024-01-10T04:40:08;39.70;;;20.37;;
43146;SDS011;28752;48.266;7.402;2024-01-10T04:42:34;39.88;;;20.45;;
43146;SDS011;28752;48.266;7.402;2024-01-10T04:44:59;40.73;;;19.30;;
43146;SDS011;28752;48.266;7.402;2024-01-10T04:47:24;36.67;;;18.70;;
43146;SDS011;28752;48.266;7.402;2024-01-10T04:49:50;41.00;;;20.63;;
43146;SDS011;28752;48.266;7.402;2024-01-10T04:52:15;36.67;;;19.20;;
43146;SDS011;28752;48.266;7.402;2024-01-10T04:54:40;38.53;;;18.70;;
43146;SDS011;28752;48.266;7.402;2024-01-10T04:57:06;39.13;;;20.37;;
43146;SDS011;28752;48.266;7.402;2024-01-10T04:59:32;37.13;;;18.58;;
43146;SDS011;28752;48.266;7.402;2024-01-10T05:01:57;38.13;;;18.95;;
43146;SDS011;28752;48.266;7.402;2024-01-10T05:04:23;39.58;;;20.67;;
43146;SDS011;28752;48.266;7.402;2024-01-10T05:06:48;37.27;;;19.07;;
43146;SDS011;28752;48.266;7.402;2024-01-10T05:09:14;36.67;;;18.67;;
43146;SDS011;28752;48.266;7.402;2024-01-10T05:11:40;37.53;;;19.85;;
43146;SDS011;28752;48.266;7.402;2024-01-10T05:14:05;36.63;;;19.60;;
43146;SDS011;28752;48.266;7.402;2024-01-10T05:16:31;41.60;;;20.30;;
43146;SDS011;28752;48.266;7.402;2024-01-10T05:18:56;42.60;;;21.40;;
43146;SDS011;28752;48.266;7.402;2024-01-10T05:21:22;41.93;;;20.27;;
43146;SDS011;28752;48.266;7.402;2024-01-10T05:23:47;40.92;;;20.60;;
43146;SDS011;28752;48.266;7.402;2024-01-10T05:26:14;42.20;;;20.35;;
43146;SDS011;28752;48.266;7.402;2024-01-10T05:28:39;37.78;;;19.58;;
43146;SDS011;28752;48.266;7.402;2024-01-10T05:31:04;37.57;;;19.60;;
43146;SDS011;28752;48.266;7.402;2024-01-10T05:33:30;36.83;;;19.53;;
43146;SDS011;28752;48.266;7.402;2024-01-10T05:35:55;35.88;;;18.88;;
43146;SDS011;28752;48.266;7.402;2024-01-10T05:38:21;33.73;;;18.60;;
43146;SDS011;28752;48.266;7.402;2024-01-10T05:40:46;35.97;;;20.10;;
43146;SDS011;28752;48.266;7.402;2024-01-10T05:43:11;38.57;;;19.60;;
43146;SDS011;28752;48.266;7.402;2024-01-10T05:45:37;39.92;;;20.73;;
43146;SDS011;28752;48.266;7.402;2024-01-10T05:48:03;40.45;;;21.25;;
43146;SDS011;28752;48.266;7.402;2024-01-10T05:50:29;41.17;;;20.17;;
43146;SDS011;28752;48.266;7.402;2024-01-10T05:52:55;46.88;;;21.77;;
43146;SDS011;28752;48.266;7.402;2024-01-10T05:55:20;40.38;;;20.98;;
43146;SDS011;28752;48.266;7.402;2024-01-10T05:57:46;40.50;;;21.07;;
43146;SDS011;28752;48.266;7.402;2024-01-10T06:00:11;41.40;;;22.50;;
43146;SDS011;28752;48.266;7.402;2024-01-10T06:02:41;39.50;;;21.70;;
43146;SDS011;28752;48.266;7.402;2024-01-10T06:05:07;43.80;;;21.67;;
43146;SDS011;28752;48.266;7.402;2024-01-10T06:07:33;41.33;;;21.38;;
43146;SDS011;28752;48.266;7.402;2024-01-10T06:10:06;41.90;;;21.88;;
43146;SDS011;28752;48.266;7.402;2024-01-10T06:12:32;45.88;;;22.02;;
43146;SDS011;28752;48.266;7.402;2024-01-10T06:14:57;42.33;;;21.33;;
43146;SDS011;28752;48.266;7.402;2024-01-10T06:17:23;40.93;;;21.47;;
43146;SDS011;28752;48.266;7.402;2024-01-10T06:19:48;46.15;;;22.27;;
43146;SDS011;28752;48.266;7.402;2024-01-10T06:22:14;46.28;;;22.70;;
43146;SDS011;28752;48.266;7.402;2024-01-10T06:24:41;46.60;;;23.80;;
43146;SDS011;28752;48.266;7.402;2024-01-10T06:27:07;39.58;;;21.58;;
43146;SDS011;28752;48.266;7.402;2024-01-10T06:29:33;49.75;;;24.58;;
43146;SDS011;28752;48.266;7.402;2024-01-10T06:31:58;53.88;;;28.30;;
43146;SDS011;28752;48.266;7.402;2024-01-10T06:34:26;46.17;;;26.05;;
43146;SDS011;28752;48.266;7.402;2024-01-10T06:36:51;54.03;;;27.30;;
43146;SDS011;28752;48.266;7.402;2024-01-10T06:39:17;56.87;;;27.27;;
43146;SDS011;28752;48.266;7.402;2024-01-10T06:41:44;49.28;;;26.52;;
43146;SDS011;28752;48.266;7.402;2024-01-10T06:44:11;45.70;;;24.85;;
43146;SDS011;28752;48.266;7.402;2024-01-10T06:46:36;48.83;;;25.30;;
43146;SDS011;28752;48.266;7.402;2024-01-10T06:49:02;44.00;;;22.43;;
43146;SDS011;28752;48.266;7.402;2024-01-10T06:51:27;47.00;;;22.77;;
43146;SDS011;28752;48.266;7.402;2024-01-10T06:53:53;44.70;;;23.20;;
43146;SDS011;28752;48.266;7.402;2024-01-10T06:56:25;46.75;;;23.98;;
43146;SDS011;28752;48.266;7.402;2024-01-10T06:58:50;43.37;;;22.57;;
43146;SDS011;28752;48.266;7.402;2024-01-10T07:01:16;47.03;;;22.63;;
43146;SDS011;28752;48.266;7.402;2024-01-10T07:03:41;40.27;;;22.13;;
43146;SDS011;28752;48.266;7.402;2024-01-10T07:06:07;39.05;;;21.60;;
43146;SDS011;28752;48.266;7.402;2024-01-10T07:08:32;41.97;;;22.73;;
43146;SDS011;28752;48.266;7.402;2024-01-10T07:10:57;40.33;;;20.30;;
43146;SDS011;28752;48.266;7.402;2024-01-10T07:13:23;47.67;;;21.80;;
43146;SDS011;28752;48.266;7.402;2024-01-10T07:15:48;41.22;;;20.85;;
43146;SDS011;28752;48.266;7.402;2024-01-10T07:18:16;38.45;;;19.55;;
43146;SDS011;28752;48.266;7.402;2024-01-10T07:20:41;43.35;;;20.60;;
43146;SDS011;28752;48.266;7.402;2024-01-10T07:23:06;41.47;;;22.17;;
43146;SDS011;28752;48.266;7.402;2024-01-10T07:25:32;42.33;;;22.92;;
43146;SDS011;28752;48.266;7.402;2024-01-10T07:30:24;41.45;;;22.27;;
43146;SDS011;28752;48.266;7.402;2024-01-10T07:32:49;43.47;;;21.93;;
43146;SDS011;28752;48.266;7.402;2024-01-10T07:35:14;37.93;;;21.03;;
43146;SDS011;28752;48.266;7.402;2024-01-10T07:37:40;39.93;;;21.30;;
43146;SDS011;28752;48.266;7.402;2024-01-10T07:40:07;35.75;;;20.10;;
43146;SDS011;28752;48.266;7.402;2024-01-10T07:42:36;39.15;;;19.90;;
43146;SDS011;28752;48.266;7.402;2024-01-10T07:45:02;33.13;;;17.63;;
43146;SDS011;28752;48.266;7.402;2024-01-10T07:47:32;35.97;;;18.90;;
43146;SDS011;28752;48.266;7.402;2024-01-10T07:49:59;34.08;;;17.70;;
43146;SDS011;28752;48.266;7.402;2024-01-10T07:52:25;34.03;;;17.83;;
43146;SDS011;28752;48.266;7.402;2024-01-10T07:54:50;39.92;;;20.30;;
43146;SDS011;28752;48.266;7.402;2024-01-10T07:57:16;33.83;;;17.33;;
43146;SDS011;28752;48.266;7.402;2024-01-10T07:59:43;35.65;;;17.73;;
43146;SDS011;28752;48.266;7.402;2024-01-10T08:02:09;33.60;;;17.52;;
43146;SDS011;28752;48.266;7.402;2024-01-10T08:07:00;33.05;;;16.55;;
43146;SDS011;28752;48.266;7.402;2024-01-10T08:09:26;30.87;;;17.03;;
43146;SDS011;28752;48.266;7.402;2024-01-10T08:11:51;33.00;;;16.93;;
43146;SDS011;28752;48.266;7.402;2024-01-10T08:14:16;41.30;;;20.37;;
43146;SDS011;28752;48.266;7.402;2024-01-10T08:16:42;37.37;;;20.47;;
43146;SDS011;28752;48.266;7.402;2024-01-10T08:19:07;45.50;;;23.53;;
43146;SDS011;28752;48.266;7.402;2024-01-10T08:21:33;49.58;;;25.63;;
43146;SDS011;28752;48.266;7.402;2024-01-10T08:23:59;50.45;;;25.67;;
43146;SDS011;28752;48.266;7.402;2024-01-10T08:26:26;57.00;;;26.08;;
43146;SDS011;28752;48.266;7.402;2024-01-10T08:28:52;59.40;;;29.87;;
43146;SDS011;28752;48.266;7.402;2024-01-10T08:31:17;67.63;;;34.87;;
43146;SDS011;28752;48.266;7.402;2024-01-10T08:33:43;70.15;;;34.13;;
43146;SDS011;28752;48.266;7.402;2024-01-10T08:36:08;71.43;;;37.67;;
43146;SDS011;28752;48.266;7.402;2024-01-10T08:41:00;67.20;;;36.33;;
43146;SDS011;28752;48.266;7.402;2024-01-10T08:43:26;80.20;;;40.78;;
43146;SDS011;28752;48.266;7.402;2024-01-10T08:45:51;63.30;;;33.23;;
43146;SDS011;28752;48.266;7.402;2024-01-10T08:48:16;64.63;;;33.27;;
43146;SDS011;28752;48.266;7.402;2024-01-10T08:50:42;60.10;;;31.53;;
43146;SDS011;28752;48.266;7.402;2024-01-10T08:53:09;74.18;;;38.60;;
43146;SDS011;28752;48.266;7.402;2024-01-10T08:55:35;66.72;;;33.92;;
43146;SDS011;28752;48.266;7.402;2024-01-10T08:58:02;61.60;;;32.03;;
43146;SDS011;28752;48.266;7.402;2024-01-10T09:00:28;50.72;;;27.63;;
43146;SDS011;28752;48.266;7.402;2024-01-10T09:02:54;45.88;;;23.58;;
43146;SDS011;28752;48.266;7.402;2024-01-10T09:05:19;43.72;;;24.33;;
43146;SDS011;28752;48.266;7.402;2024-01-10T09:07:46;49.70;;;26.65;;
43146;SDS011;28752;48.266;7.402;2024-01-10T09:10:12;39.45;;;20.85;;
43146;SDS011;28752;48.266;7.402;2024-01-10T09:12:37;40.58;;;21.15;;
43146;SDS011;28752;48.266;7.402;2024-01-10T09:15:03;41.77;;;22.87;;
43146;SDS011;28752;48.266;7.402;2024-01-10T09:17:29;44.40;;;23.13;;
43146;SDS011;28752;48.266;7.402;2024-01-10T09:19:54;40.30;;;22.08;;
43146;SDS011;28752;48.266;7.402;2024-01-10T09:22:19;42.80;;;22.73;;
43146;SDS011;28752;48.266;7.402;2024-01-10T09:24:45;44.97;;;21.60;;
43146;SDS011;28752;48.266;7.402;2024-01-10T09:27:10;35.33;;;21.00;;
43146;SDS011;28752;48.266;7.402;2024-01-10T09:29:36;38.30;;;21.48;;
43146;SDS011;28752;48.266;7.402;2024-01-10T09:32:02;44.30;;;23.63;;
43146;SDS011;28752;48.266;7.402;2024-01-10T09:34:27;47.60;;;24.50;;
43146;SDS011;28752;48.266;7.402;2024-01-10T09:36:53;43.03;;;23.08;;
43146;SDS011;28752;48.266;7.402;2024-01-10T09:39:18;46.93;;;23.10;;
43146;SDS011;28752;48.266;7.402;2024-01-10T09:41:47;43.47;;;22.00;;
43146;SDS011;28752;48.266;7.402;2024-01-10T09:44:15;41.13;;;21.23;;
43146;SDS011;28752;48.266;7.402;2024-01-10T09:46:43;36.20;;;19.48;;
43146;SDS011;28752;48.266;7.402;2024-01-10T09:49:15;33.50;;;16.83;;
43146;SDS011;28752;48.266;7.402;2024-01-10T09:51:41;32.08;;;17.63;;
43146;SDS011;28752;48.266;7.402;2024-01-10T09:54:07;39.57;;;19.87;;
43146;SDS011;28752;48.266;7.402;2024-01-10T09:56:32;35.40;;;19.07;;
43146;SDS011;28752;48.266;7.402;2024-01-10T09:59:00;37.30;;;19.60;;
43146;SDS011;28752;48.266;7.402;2024-01-10T10:01:29;35.80;;;19.80;;
43146;SDS011;28752;48.266;7.402;2024-01-10T10:03:55;40.15;;;20.92;;
43146;SDS011;28752;48.266;7.402;2024-01-10T10:06:21;39.38;;;19.90;;
43146;SDS011;28752;48.266;7.402;2024-01-10T10:08:47;39.45;;;19.02;;
43146;SDS011;28752;48.266;7.402;2024-01-10T10:11:12;36.53;;;19.63;;
43146;SDS011;28752;48.266;7.402;2024-01-10T10:13:40;35.72;;;18.98;;
43146;SDS011;28752;48.266;7.402;2024-01-10T10:16:07;39.72;;;19.80;;
43146;SDS011;28752;48.266;7.402;2024-01-10T10:18:37;35.05;;;18.33;;
43146;SDS011;28752;48.266;7.402;2024-01-10T10:21:13;36.65;;;18.70;;
43146;SDS011;28752;48.266;7.402;2024-01-10T10:23:43;36.43;;;18.57;;
43146;SDS011;28752;48.266;7.402;2024-01-10T10:26:32;32.85;;;17.17;;
43146;SDS011;28752;48.266;7.402;2024-01-10T10:28:58;32.22;;;18.35;;
43146;SDS011;28752;48.266;7.402;2024-01-10T10:31:24;35.30;;;17.58;;
43146;SDS011;28752;48.266;7.402;2024-01-10T10:33:50;31.52;;;17.38;;
43146;SDS011;28752;48.266;7.402;2024-01-10T10:36:16;33.72;;;18.05;;
43146;SDS011;28752;48.266;7.402;2024-01-10T10:38:42;32.03;;;17.77;;
43146;SDS011;28752;48.266;7.402;2024-01-10T10:41:08;34.17;;;18.20;;
43146;SDS011;28752;48.266;7.402;2024-01-10T10:43:37;31.40;;;17.15;;
43146;SDS011;28752;48.266;7.402;2024-01-10T10:46:04;32.85;;;18.13;;
43146;SDS011;28752;48.266;7.402;2024-01-10T10:48:34;34.08;;;18.83;;
43146;SDS011;28752;48.266;7.402;2024-01-10T10:53:27;33.77;;;17.57;;
43146;SDS011;28752;48.266;7.402;2024-01-10T10:55:55;31.02;;;17.50;;
43146;SDS011;28752;48.266;7.402;2024-01-10T10:58:22;31.02;;;17.58;;
43146;SDS011;28752;48.266;7.402;2024-01-10T11:00:47;35.90;;;17.30;;
43146;SDS011;28752;48.266;7.402;2024-01-10T11:08:05;30.65;;;16.25;;
43146;SDS011;28752;48.266;7.402;2024-01-10T11:10:34;29.00;;;15.02;;
43146;SDS011;28752;48.266;7.402;2024-01-10T11:24:20;29.60;;;15.10;;
43146;SDS011;28752;48.266;7.402;2024-01-10T11:26:46;32.05;;;15.45;;
43146;SDS011;28752;48.266;7.402;2024-01-10T11:29:11;29.50;;;16.57;;
43146;SDS011;28752;48.266;7.402;2024-01-10T11:38:57;29.50;;;14.90;;
43146;SDS011;28752;48.266;7.402;2024-01-10T11:41:31;31.08;;;17.27;;
43146;SDS011;28752;48.266;7.402;2024-01-10T11:46:46;30.98;;;15.73;;
43146;SDS011;28752;48.266;7.402;2024-01-10T11:49:14;27.98;;;15.60;;
43146;SDS011;28752;48.266;7.402;2024-01-10T11:51:48;28.17;;;15.60;;
43146;SDS011;28752;48.266;7.402;2024-01-10T11:57:02;28.83;;;16.20;;
43146;SDS011;28752;48.266;7.402;2024-01-10T11:59:27;27.95;;;14.23;;
43146;SDS011;28752;48.266;7.402;2024-01-10T12:01:55;29.45;;;15.80;;
43146;SDS011;28752;48.266;7.402;2024-01-10T12:04:20;28.70;;;16.43;;
43146;SDS011;28752;48.266;7.402;2024-01-10T12:06:46;29.23;;;16.38;;
43146;SDS011;28752;48.266;7.402;2024-01-10T12:09:12;34.73;;;17.03;;
43146;SDS011;28752;48.266;7.402;2024-01-10T12:11:39;28.80;;;16.58;;
43146;SDS011;28752;48.266;7.402;2024-01-10T12:14:05;28.98;;;16.77;;
43146;SDS011;28752;48.266;7.402;2024-01-10T12:16:33;30.25;;;16.75;;
43146;SDS011;28752;48.266;7.402;2024-01-10T12:18:59;30.40;;;16.98;;
43146;SDS011;28752;48.266;7.402;2024-01-10T12:21:24;31.50;;;17.33;;
43146;SDS011;28752;48.266;7.402;2024-01-10T12:23:50;30.23;;;17.00;;
43146;SDS011;28752;48.266;7.402;2024-01-10T12:26:16;30.10;;;16.10;;
43146;SDS011;28752;48.266;7.402;2024-01-10T12:28:53;31.40;;;17.45;;
43146;SDS011;28752;48.266;7.402;2024-01-10T12:31:18;32.67;;;18.02;;
43146;SDS011;28752;48.266;7.402;2024-01-10T12:33:44;35.33;;;18.63;;
43146;SDS011;28752;48.266;7.402;2024-01-10T12:36:10;31.23;;;17.53;;
43146;SDS011;28752;48.266;7.402;2024-01-10T12:38:36;31.08;;;17.95;;
43146;SDS011;28752;48.266;7.402;2024-01-10T12:41:03;30.77;;;17.27;;
43146;SDS011;28752;48.266;7.402;2024-01-10T12:43:29;32.90;;;17.33;;
43146;SDS011;28752;48.266;7.402;2024-01-10T12:48:30;33.15;;;17.42;;
43146;SDS011;28752;48.266;7.402;2024-01-10T12:50:56;35.60;;;20.13;;
43146;SDS011;28752;48.266;7.402;2024-01-10T12:53:22;36.47;;;20.75;;
43146;SDS011;28752;48.266;7.402;2024-01-10T12:55:47;34.40;;;17.77;;
43146;SDS011;28752;48.266;7.402;2024-01-10T12:58:13;33.67;;;18.48;;
43146;SDS011;28752;48.266;7.402;2024-01-10T13:00:38;32.03;;;17.97;;
43146;SDS011;28752;48.266;7.402;2024-01-10T13:07:56;33.93;;;17.60;;
43146;SDS011;28752;48.266;7.402;2024-01-10T13:10:22;28.40;;;16.20;;
43146;SDS011;28752;48.266;7.402;2024-01-10T13:12:47;32.33;;;17.87;;
43146;SDS011;28752;48.266;7.402;2024-01-10T13:15:12;36.20;;;18.47;;
43146;SDS011;28752;48.266;7.402;2024-01-10T13:17:38;35.37;;;19.10;;
43146;SDS011;28752;48.266;7.402;2024-01-10T13:20:03;34.50;;;17.60;;
43146;SDS011;28752;48.266;7.402;2024-01-10T13:22:30;36.15;;;19.45;;
43146;SDS011;28752;48.266;7.402;2024-01-10T13:24:55;34.63;;;17.52;;
43146;SDS011;28752;48.266;7.402;2024-01-10T13:27:21;32.10;;;18.97;;
43146;SDS011;28752;48.266;7.402;2024-01-10T13:29:46;31.27;;;17.33;;
43146;SDS011;28752;48.266;7.402;2024-01-10T13:32:11;31.60;;;17.47;;
43146;SDS011;28752;48.266;7.402;2024-01-10T13:34:37;34.77;;;18.00;;
43146;SDS011;28752;48.266;7.402;2024-01-10T13:37:02;33.10;;;17.67;;
43146;SDS011;28752;48.266;7.402;2024-01-10T13:39:28;33.03;;;17.98;;
43146;SDS011;28752;48.266;7.402;2024-01-10T13:41:56;32.50;;;18.70;;
43146;SDS011;28752;48.266;7.402;2024-01-10T13:44:24;31.83;;;17.27;;
43146;SDS011;28752;48.266;7.402;2024-01-10T13:46:53;37.25;;;19.42;;
43146;SDS011;28752;48.266;7.402;2024-01-10T13:49:21;32.90;;;17.50;;
43146;SDS011;28752;48.266;7.402;2024-01-10T13:51:49;30.98;;;17.27;;
43146;SDS011;28752;48.266;7.402;2024-01-10T13:54:39;32.80;;;17.58;;
43146;SDS011;28752;48.266;7.402;2024-01-10T13:57:09;30.50;;;18.45;;
43146;SDS011;28752;48.266;7.402;2024-01-10T13:59:34;34.83;;;18.47;;
43146;SDS011;28752;48.266;7.402;2024-01-10T14:02:00;34.27;;;17.77;;
43146;SDS011;28752;48.266;7.402;2024-01-10T14:04:25;33.63;;;18.37;;
43146;SDS011;28752;48.266;7.402;2024-01-10T14:06:50;34.93;;;19.13;;
43146;SDS011;28752;48.266;7.402;2024-01-10T14:09:16;39.37;;;19.27;;
43146;SDS011;28752;48.266;7.402;2024-01-10T14:11:43;38.05;;;21.38;;
43146;SDS011;28752;48.266;7.402;2024-01-10T14:14:13;35.13;;;19.85;;
43146;SDS011;28752;48.266;7.402;2024-01-10T14:16:39;36.15;;;18.40;;
43146;SDS011;28752;48.266;7.402;2024-01-10T14:19:06;33.03;;;19.25;;
43146;SDS011;28752;48.266;7.402;2024-01-10T14:21:31;31.40;;;18.08;;
43146;SDS011;28752;48.266;7.402;2024-01-10T14:23:57;39.50;;;20.83;;
43146;SDS011;28752;48.266;7.402;2024-01-10T14:26:22;33.97;;;18.33;;
43146;SDS011;28752;48.266;7.402;2024-01-10T14:28:47;38.10;;;20.47;;
43146;SDS011;28752;48.266;7.402;2024-01-10T14:31:13;37.73;;;20.33;;
43146;SDS011;28752;48.266;7.402;2024-01-10T14:33:39;55.90;;;24.23;;
43146;SDS011;28752;48.266;7.402;2024-01-10T14:40:55;33.67;;;19.00;;
43146;SDS011;28752;48.266;7.402;2024-01-10T14:43:21;34.93;;;17.97;;
43146;SDS011;28752;48.266;7.402;2024-01-10T14:45:47;33.27;;;19.23;;
43146;SDS011;28752;48.266;7.402;2024-01-10T14:48:13;45.00;;;26.33;;
43146;SDS011;28752;48.266;7.402;2024-01-10T14:50:39;40.10;;;21.63;;
43146;SDS011;28752;48.266;7.402;2024-01-10T14:53:04;38.20;;;21.40;;
43146;SDS011;28752;48.266;7.402;2024-01-10T14:55:29;36.87;;;21.13;;
43146;SDS011;28752;48.266;7.402;2024-01-10T14:57:55;39.50;;;21.27;;
43146;SDS011;28752;48.266;7.402;2024-01-10T15:00:20;40.23;;;21.47;;
43146;SDS011;28752;48.266;7.402;2024-01-10T15:02:45;35.50;;;20.37;;
43146;SDS011;28752;48.266;7.402;2024-01-10T15:05:11;32.83;;;20.13;;
43146;SDS011;28752;48.266;7.402;2024-01-10T15:07:39;36.50;;;20.85;;
43146;SDS011;28752;48.266;7.402;2024-01-10T15:10:05;38.53;;;22.00;;